Time;durP1;ratioP1;P1;durP2;ratioP2;P2;SDS_P1;SDS_P2;PMS_P1;PMS_P2;Temp;Humidity;BMP_temperature;BMP_pressure;BME280_temperature;BME280_humidity;BME280_pressure;Samples;Min_cycle;Max_cycle;Signal;HPM_P1;HPM_P2
2022/01/14 00:01:40;;;;;;;40.63;17.95;;;;;;;-2.25;100.00;100816.69;5035276;28;20024;-70
2022/01/14 00:04:05;;;;;;;38.35;18.20;;;;;;;-2.36;100.00;100809.19;5034752;28;20118;-70
2022/01/14 00:06:31;;;;;;;40.63;16.20;;;;;;;-2.37;100.00;100817.25;5040034;28;20093;-70
2022/01/14 00:09:05;;;;;;;37.35;16.17;;;;;;;-2.49;100.00;100816.00;5042341;28;20151;-71
2022/01/14 00:11:32;;;;;;;35.75;15.85;;;;;;;-2.38;100.00;100826.09;5044580;28;20037;-71
2022/01/14 00:16:29;;;;;;;35.38;15.85;;;;;;;-2.53;100.00;100820.59;5035451;28;20040;-70
2022/01/14 00:18:54;;;;;;;36.08;15.38;;;;;;;-2.54;100.00;100824.19;5036927;28;20403;-71
2022/01/14 00:21:20;;;;;;;37.95;16.17;;;;;;;-2.52;100.00;100827.59;5039777;28;20025;-72
2022/01/14 00:23:50;;;;;;;33.85;15.18;;;;;;;-2.71;100.00;100801.09;5039824;28;20096;-70
2022/01/14 00:34:14;;;;;;;32.38;14.27;;;;;;;-2.53;100.00;100833.84;5042020;28;20494;-71
2022/01/14 00:36:40;;;;;;;27.92;14.30;;;;;;;-2.39;100.00;100824.41;5048140;28;20045;-71
2022/01/14 00:39:07;;;;;;;32.97;15.40;;;;;;;-2.25;100.00;100816.69;5038014;28;20059;-71
2022/01/14 00:41:34;;;;;;;34.40;14.82;;;;;;;-2.14;100.00;100821.47;5046238;28;20016;-71
2022/01/14 00:44:02;;;;;;;33.30;14.18;;;;;;;-2.05;100.00;100829.81;5043812;28;20085;-71
2022/01/14 00:46:28;;;;;;;29.45;15.00;;;;;;;-2.37;100.00;100809.28;5053429;28;20168;-71
2022/01/14 00:48:53;;;;;;;30.67;13.45;;;;;;;-2.30;100.00;100829.28;5051895;28;20060;-71
2022/01/14 00:51:19;;;;;;;34.70;14.95;;;;;;;-2.35;100.00;100818.88;5056702;28;20037;-71
2022/01/14 00:53:44;;;;;;;35.85;16.63;;;;;;;-2.55;100.00;100805.69;5054960;28;20063;-72
2022/01/14 00:56:25;;;;;;;35.47;15.43;;;;;;;-2.51;100.00;100813.44;5056587;28;20037;-70
2022/01/14 01:01:38;;;;;;;36.50;16.05;;;;;;;-2.57;100.00;100820.81;5057570;28;20094;-70
2022/01/14 01:04:03;;;;;;;35.45;15.32;;;;;;;-2.59;100.00;100820.00;5047305;28;20113;-71
2022/01/14 01:06:29;;;;;;;32.20;14.88;;;;;;;-2.74;100.00;100806.53;5031193;28;20520;-71
2022/01/14 01:08:56;;;;;;;32.65;15.25;;;;;;;-2.62;100.00;100820.16;5031271;28;20316;-71
2022/01/14 01:11:26;;;;;;;36.13;15.80;;;;;;;-2.87;100.00;100778.88;5032098;28;20482;-71
2022/01/14 01:14:01;;;;;;;38.00;15.32;;;;;;;-2.81;100.00;100797.13;5025718;28;20025;-71
2022/01/14 01:16:27;;;;;;;36.28;14.32;;;;;;;-2.80;100.00;100805.94;5025873;28;20021;-70
2022/01/14 01:18:52;;;;;;;30.63;14.68;;;;;;;-2.66;100.00;100815.00;5030849;28;20399;-71
2022/01/14 01:21:17;;;;;;;36.45;15.98;;;;;;;-2.71;100.00;100806.38;5026582;28;20463;-70
2022/01/14 01:23:43;;;;;;;35.17;15.45;;;;;;;-2.72;100.00;100817.06;5029537;28;20119;-70
2022/01/14 01:26:14;;;;;;;33.78;15.93;;;;;;;-2.63;100.00;100821.94;5032422;28;20029;-70
2022/01/14 01:28:55;;;;;;;36.65;16.45;;;;;;;-2.69;100.00;100804.53;5035841;28;20037;-71
2022/01/14 01:31:37;;;;;;;38.35;15.95;;;;;;;-2.66;100.00;100812.34;5035100;28;20025;-70
2022/01/14 01:34:12;;;;;;;40.67;16.30;;;;;;;-2.72;100.00;100803.84;5032844;28;20032;-71
2022/01/14 01:36:39;;;;;;;40.55;16.40;;;;;;;-2.63;100.00;100815.78;5032000;28;20025;-71
2022/01/14 01:39:07;;;;;;;36.20;15.73;;;;;;;-2.62;100.00;100813.09;5034081;28;20029;-71
2022/01/14 01:41:38;;;;;;;32.00;15.70;;;;;;;-2.74;100.00;100779.19;5026794;28;20083;-71
2022/01/14 01:44:06;;;;;;;27.80;14.60;;;;;;;-2.72;100.00;100787.94;5030663;28;20047;-69
2022/01/14 01:46:33;;;;;;;39.30;16.00;;;;;;;-2.66;100.00;100801.75;5048211;28;20071;-70
2022/01/14 01:48:58;;;;;;;38.97;14.75;;;;;;;-2.77;100.00;100800.53;5055259;28;20101;-70
2022/01/14 01:51:23;;;;;;;37.40;16.15;;;;;;;-2.87;100.00;100789.47;5043537;28;20029;-70
2022/01/14 01:53:49;;;;;;;36.15;15.52;;;;;;;-2.81;100.00;100791.84;5047866;28;20057;-69
2022/01/14 01:56:15;;;;;;;38.22;16.42;;;;;;;-2.98;100.00;100771.44;5054588;28;20049;-70
2022/01/14 01:58:40;;;;;;;32.97;15.48;;;;;;;-2.86;100.00;100788.53;5053410;28;20067;-70
2022/01/14 02:01:07;;;;;;;34.83;15.35;;;;;;;-2.83;100.00;100795.50;5030153;28;20033;-70
2022/01/14 02:03:33;;;;;;;37.92;15.73;;;;;;;-2.86;100.00;100791.19;5031385;28;20029;-71
2022/01/14 02:05:59;;;;;;;33.70;14.98;;;;;;;-2.94;100.00;100780.94;5030655;28;20120;-71
2022/01/14 02:08:25;;;;;;;32.50;15.75;;;;;;;-2.87;100.00;100792.97;5032681;28;20112;-70
2022/01/14 02:10:50;;;;;;;38.03;15.88;;;;;;;-2.80;100.00;100804.19;5029010;28;20109;-70
2022/01/14 02:13:16;;;;;;;36.35;14.60;;;;;;;-2.75;100.00;100793.34;5030972;28;20029;-69
2022/01/14 02:15:46;;;;;;;36.90;16.63;;;;;;;-2.68;100.00;100794.78;5031484;28;20029;-71
2022/01/14 02:23:24;;;;;;;28.08;13.65;;;;;;;-2.77;100.00;100776.69;5031490;28;20040;-71
2022/01/14 02:25:50;;;;;;;37.08;15.13;;;;;;;-2.64;100.00;100756.66;5029819;28;20033;-70
2022/01/14 02:28:17;;;;;;;30.52;14.00;;;;;;;-2.66;100.00;100766.44;5036124;28;20497;-70
2022/01/14 02:30:46;;;;;;;27.60;13.60;;;;;;;-2.77;100.00;100766.09;5034478;28;20027;-70
2022/01/14 02:33:12;;;;;;;30.67;13.30;;;;;;;-2.94;100.00;100741.22;5029574;28;20053;-70
2022/01/14 02:35:39;;;;;;;30.95;14.15;;;;;;;-2.89;100.00;100754.25;5027230;28;20426;-70
2022/01/14 02:38:07;;;;;;;34.55;14.60;;;;;;;-2.92;100.00;100757.03;5029025;28;20075;-70
2022/01/14 02:40:32;;;;;;;35.47;13.73;;;;;;;-2.92;100.00;100757.03;5026098;28;20104;-70
2022/01/14 02:43:00;;;;;;;29.67;14.18;;;;;;;-2.93;100.00;100758.84;5025907;28;20148;-70
2022/01/14 02:45:30;;;;;;;29.75;13.23;;;;;;;-3.05;100.00;100729.41;5024643;28;20431;-70
2022/01/14 02:47:55;;;;;;;28.30;12.90;;;;;;;-2.96;100.00;100740.44;5031694;28;20116;-71
2022/01/14 02:50:23;;;;;;;29.42;13.20;;;;;;;-3.01;100.00;100742.44;5029978;28;20096;-70
2022/01/14 02:55:19;;;;;;;25.15;10.45;;;;;;;-2.99;100.00;100737.91;5025519;28;20462;-71
2022/01/14 02:57:46;;;;;;;27.67;11.88;;;;;;;-2.87;100.00;100729.41;5029602;28;20368;-70
2022/01/14 03:00:14;;;;;;;26.75;12.60;;;;;;;-2.92;100.00;100719.97;5028270;28;20068;-71
2022/01/14 03:02:46;;;;;;;32.85;13.90;;;;;;;-2.85;100.00;100716.13;5028801;28;20027;-70
2022/01/14 03:05:12;;;;;;;28.30;12.60;;;;;;;-2.82;100.00;100723.91;5029962;28;20023;-71
2022/01/14 03:07:39;;;;;;;26.77;11.70;;;;;;;-2.87;100.00;100720.63;5031282;28;20036;-71
2022/01/14 03:10:06;;;;;;;30.60;14.20;;;;;;;-2.90;100.00;100731.34;5030002;28;20037;-70
2022/01/14 03:12:32;;;;;;;34.78;15.52;;;;;;;-3.05;100.00;100706.44;5029117;28;20124;-70
2022/01/14 03:14:57;;;;;;;27.95;14.85;;;;;;;-3.01;100.00;100729.19;5031526;28;20018;-70
2022/01/14 03:17:23;;;;;;;35.85;18.30;;;;;;;-3.19;100.00;100703.56;5021997;28;20076;-69
2022/01/14 03:19:49;;;;;;;36.47;16.20;;;;;;;-3.20;100.00;100720.34;5028617;28;20455;-70
2022/01/14 03:22:26;;;;;;;33.42;16.05;;;;;;;-3.21;100.00;100721.28;5025176;28;20109;-69
2022/01/14 03:27:17;;;;;;;38.65;16.30;;;;;;;-3.36;100.00;100697.22;5030316;28;20569;-69
2022/01/14 03:29:44;;;;;;;32.13;14.73;;;;;;;-3.31;100.00;100705.81;5026097;28;20025;-69
2022/01/14 03:32:09;;;;;;;31.90;15.98;;;;;;;-3.24;100.00;100721.44;5028706;28;20034;-69
2022/01/14 03:34:35;;;;;;;28.05;13.77;;;;;;;-3.25;100.00;100712.59;5024975;28;20060;-69
2022/01/14 03:37:01;;;;;;;27.27;13.48;;;;;;;-3.12;100.00;100726.16;5027350;28;20030;-70
2022/01/14 03:39:26;;;;;;;27.58;13.98;;;;;;;-3.13;100.00;100721.81;5024452;28;20035;-69
2022/01/14 03:41:52;;;;;;;29.65;13.48;;;;;;;-3.20;100.00;100717.72;5020575;28;20045;-70
2022/01/14 03:44:17;;;;;;;31.08;14.02;;;;;;;-3.20;100.00;100717.72;5023332;28;20029;-70
2022/01/14 03:46:43;;;;;;;35.85;14.77;;;;;;;-3.34;100.00;100708.59;5030673;28;20071;-70
2022/01/14 03:49:08;;;;;;;30.95;14.63;;;;;;;-3.22;100.00;100724.84;5021432;28;20029;-70
2022/01/14 03:51:34;;;;;;;35.25;15.07;;;;;;;-3.21;100.00;100721.28;5024732;28;20026;-70
2022/01/14 03:53:59;;;;;;;31.17;13.98;;;;;;;-3.19;100.00;100714.16;5031140;28;20056;-70
2022/01/14 03:56:25;;;;;;;33.47;14.25;;;;;;;-3.24;100.00;100719.63;5027764;28;20100;-70
2022/01/14 03:58:51;;;;;;;27.48;12.25;;;;;;;-3.28;100.00;100712.75;5024483;28;20395;-69
2022/01/14 04:01:18;;;;;;;29.35;14.13;;;;;;;-3.27;100.00;100713.63;5029406;28;20018;-69
2022/01/14 04:03:44;;;;;;;35.10;14.27;;;;;;;-3.31;100.00;100702.31;5029901;28;20025;-70
2022/01/14 04:06:13;;;;;;;27.33;13.93;;;;;;;-3.23;100.00;100704.63;5016000;28;20044;-69
2022/01/14 04:08:39;;;;;;;30.45;14.50;;;;;;;-3.29;100.00;100702.25;5023235;28;20021;-69
2022/01/14 04:11:05;;;;;;;31.48;14.20;;;;;;;-3.32;100.00;100688.22;5029864;28;20065;-70
2022/01/14 04:13:44;;;;;;;28.90;13.52;;;;;;;-3.25;100.00;100709.09;5024896;28;20408;-70
2022/01/14 04:16:10;;;;;;;27.75;13.30;;;;;;;-3.29;100.00;100694.31;5026885;28;20042;-70
2022/01/14 04:18:35;;;;;;;29.40;13.70;;;;;;;-3.27;100.00;100701.25;5021686;28;20128;-69
2022/01/14 04:21:01;;;;;;;29.38;13.70;;;;;;;-3.28;100.00;100698.66;5019597;28;20029;-70
2022/01/14 04:23:26;;;;;;;30.92;14.50;;;;;;;-3.29;100.00;100704.91;5021176;28;20025;-69
2022/01/14 04:25:56;;;;;;;31.58;12.73;;;;;;;-3.28;100.00;100690.72;5027693;28;20017;-69
2022/01/14 04:28:23;;;;;;;28.75;13.45;;;;;;;-3.41;100.00;100675.38;5028505;28;20025;-69
2022/01/14 04:30:56;;;;;;;27.77;13.40;;;;;;;-3.43;100.00;100669.31;5028427;28;20037;-69
2022/01/14 04:33:28;;;;;;;25.05;11.85;;;;;;;-3.33;100.00;100680.34;5025775;28;20032;-69
2022/01/14 04:36:00;;;;;;;35.53;14.00;;;;;;;-3.35;100.00;100679.56;5031935;28;20030;-69
2022/01/14 04:38:27;;;;;;;31.50;14.20;;;;;;;-3.33;100.00;100681.22;5031773;28;20032;-70
2022/01/14 04:40:53;;;;;;;31.23;15.43;;;;;;;-3.27;100.00;100668.66;5032062;28;20030;-70
2022/01/14 04:43:20;;;;;;;26.30;13.45;;;;;;;-3.26;100.00;100675.63;5032377;28;20442;-69
2022/01/14 04:48:24;;;;;;;31.83;13.03;;;;;;;-3.32;100.00;100679.44;5032956;28;20044;-69
2022/01/14 04:50:54;;;;;;;26.83;12.65;;;;;;;-3.43;100.00;100661.38;5031857;28;20276;-69
2022/01/14 04:53:20;;;;;;;27.67;12.98;;;;;;;-3.41;100.00;100667.44;5033219;28;20513;-69
2022/01/14 04:55:46;;;;;;;30.48;13.10;;;;;;;-3.32;100.00;100680.28;5030244;28;20026;-76
2022/01/14 04:58:12;;;;;;;30.00;13.82;;;;;;;-3.31;100.00;100675.84;5037368;28;20032;-74
2022/01/14 05:00:38;;;;;;;29.85;13.20;;;;;;;-3.39;100.00;100673.53;5039405;28;20021;-74
2022/01/14 05:03:06;;;;;;;26.20;12.85;;;;;;;-3.28;100.00;100678.34;5037717;28;20021;-74
2022/01/14 05:05:34;;;;;;;27.30;12.75;;;;;;;-3.26;100.00;100649.16;5045182;28;20082;-76
2022/01/14 05:08:00;;;;;;;25.42;11.65;;;;;;;-3.12;100.00;100657.31;5047330;28;20065;-73
2022/01/14 05:12:54;;;;;;;22.52;9.95;;;;;;;-3.14;100.00;100665.34;5048166;28;20037;-73
2022/01/14 05:15:20;;;;;;;28.02;12.75;;;;;;;-3.26;100.00;100667.69;5045540;28;20029;-75
2022/01/14 05:17:46;;;;;;;28.20;12.38;;;;;;;-3.16;100.00;100679.59;5038920;28;20585;-72
2022/01/14 05:20:18;;;;;;;24.73;11.48;;;;;;;-3.19;100.00;100667.34;5036672;28;20529;-74
2022/01/14 05:22:44;;;;;;;25.13;12.73;;;;;;;-3.20;100.00;100678.00;5042114;28;20068;-76
2022/01/14 05:25:12;;;;;;;27.77;12.75;;;;;;;-3.32;100.00;100667.03;5047468;28;20098;-76
2022/01/14 05:27:37;;;;;;;25.42;12.40;;;;;;;-3.32;100.00;100671.50;5046806;28;20021;-77
2022/01/14 05:30:05;;;;;;;25.58;13.02;;;;;;;-3.27;100.00;100673.94;5042202;28;20037;-76
2022/01/14 05:32:30;;;;;;;25.88;12.40;;;;;;;-3.37;100.00;100671.69;5075696;28;20025;-72
2022/01/14 05:34:56;;;;;;;23.58;12.32;;;;;;;-3.45;100.00;100672.97;5041523;28;20023;-77
2022/01/14 05:37:21;;;;;;;28.15;13.52;;;;;;;-3.52;100.00;100657.34;5078027;28;20019;-75
2022/01/14 05:39:47;;;;;;;29.45;13.90;;;;;;;-3.45;100.00;100675.63;5044572;28;20056;-78
2022/01/14 05:42:12;;;;;;;38.30;17.35;;;;;;;-3.58;100.00;100654.97;5044433;28;20391;-77
2022/01/14 05:44:38;;;;;;;41.80;18.10;;;;;;;-3.56;100.00;100652.28;5043779;28;20017;-78
2022/01/14 05:47:04;;;;;;;49.83;19.52;;;;;;;-3.52;100.00;100669.72;5047360;28;20048;-74
2022/01/14 05:49:29;;;;;;;43.38;17.77;;;;;;;-3.45;100.00;100655.28;5042711;28;20120;-72
2022/01/14 05:51:55;;;;;;;33.90;15.60;;;;;;;-3.35;100.00;100639.88;5045569;28;20034;-72
2022/01/14 05:54:22;;;;;;;37.67;15.88;;;;;;;-3.23;100.00;100660.47;5045651;28;20025;-70
2022/01/14 05:56:48;;;;;;;27.67;13.43;;;;;;;-3.20;100.00;100652.38;5048500;28;20026;-70
2022/01/14 05:59:14;;;;;;;28.05;12.85;;;;;;;-3.31;100.00;100655.53;5033271;28;20588;-73
2022/01/14 06:01:39;;;;;;;28.52;13.13;;;;;;;-3.33;100.00;100653.88;5038321;28;20026;-69
2022/01/14 06:04:05;;;;;;;29.60;13.15;;;;;;;-3.44;100.00;100640.28;5039323;28;20044;-78
2022/01/14 06:06:32;;;;;;;32.83;13.88;;;;;;;-3.51;100.00;100634.41;5040332;28;20083;-72
2022/01/14 06:08:58;;;;;;;27.23;12.48;;;;;;;-3.52;100.00;100643.25;5033518;28;20107;-70
2022/01/14 06:11:24;;;;;;;30.90;13.20;;;;;;;-3.56;100.00;100642.56;5038674;28;20041;-75
2022/01/14 06:13:49;;;;;;;30.85;12.40;;;;;;;-3.60;100.00;100634.81;5035474;28;20103;-80
2022/01/14 06:16:15;;;;;;;27.63;13.43;;;;;;;-3.52;100.00;100640.63;5040670;28;20475;-73
2022/01/14 06:18:41;;;;;;;22.80;11.15;;;;;;;-3.69;100.00;100625.50;5036752;28;20055;-72
2022/01/14 06:21:07;;;;;;;29.55;12.60;;;;;;;-3.60;100.00;100629.53;5045501;28;20026;-69
2022/01/14 06:23:32;;;;;;;23.27;12.07;;;;;;;-3.52;100.00;100643.25;5046385;28;20064;-69
2022/01/14 06:25:58;;;;;;;30.23;13.13;;;;;;;-3.51;100.00;100652.94;5040677;28;20029;-69
2022/01/14 06:28:24;;;;;;;27.15;12.45;;;;;;;-3.43;100.00;100653.44;5039744;28;20021;-70
2022/01/14 06:30:49;;;;;;;27.88;12.63;;;;;;;-3.41;100.00;100653.38;5047116;28;20033;-69
2022/01/14 06:33:15;;;;;;;26.17;12.43;;;;;;;-3.48;100.00;100646.63;5033121;28;20033;-71
2022/01/14 06:35:40;;;;;;;25.70;10.50;;;;;;;-3.70;100.00;100636.16;5039470;28;20025;-69
2022/01/14 06:38:06;;;;;;;30.58;11.50;;;;;;;-3.63;100.00;100648.19;5036503;28;20052;-69
2022/01/14 06:40:33;;;;;;;24.67;11.70;;;;;;;-3.64;100.00;100659.66;5039726;28;20032;-70
2022/01/14 06:42:59;;;;;;;27.45;11.90;;;;;;;-3.66;100.00;100662.41;5040995;28;20048;-69
2022/01/14 06:45:24;;;;;;;28.33;12.75;;;;;;;-3.70;100.00;100652.00;5034667;28;20052;-70
2022/01/14 06:47:51;;;;;;;29.42;11.88;;;;;;;-3.48;100.00;100671.31;5043607;28;20025;-68
2022/01/14 06:50:17;;;;;;;29.05;12.18;;;;;;;-3.62;100.00;100655.19;5042727;28;20117;-70
2022/01/14 06:52:42;;;;;;;24.10;11.25;;;;;;;-3.57;100.00;100677.00;5039692;28;20034;-71
2022/01/14 06:55:09;;;;;;;28.05;12.93;;;;;;;-3.52;100.00;100680.31;5051989;28;20067;-70
2022/01/14 06:57:35;;;;;;;28.55;12.60;;;;;;;-3.45;100.00;100687.06;5040395;28;20033;-71
2022/01/14 07:00:08;;;;;;;28.08;12.50;;;;;;;-3.56;100.00;100686.69;5037110;28;20032;-69
2022/01/14 07:02:35;;;;;;;27.58;12.98;;;;;;;-3.68;100.00;100679.25;5043790;28;20175;-78
2022/01/14 07:05:02;;;;;;;32.38;13.40;;;;;;;-3.54;100.00;100671.56;5026949;28;20022;-74
2022/01/14 07:07:27;;;;;;;29.52;12.77;;;;;;;-3.48;100.00;100686.31;5018949;28;20026;-71
2022/01/14 07:09:56;;;;;;;26.33;12.30;;;;;;;-3.48;100.00;100691.59;5026425;28;20035;-79
2022/01/14 07:12:30;;;;;;;29.07;12.20;;;;;;;-3.43;100.00;100695.78;5030232;28;20116;-75
2022/01/14 07:14:59;;;;;;;32.20;13.93;;;;;;;-3.28;100.00;100701.31;5032796;28;20272;-78
2022/01/14 07:17:25;;;;;;;27.65;14.18;;;;;;;-3.22;100.00;100696.63;5035500;28;20506;-74
2022/01/14 07:19:54;;;;;;;26.63;12.00;;;;;;;-3.33;100.00;100670.63;5039832;28;20037;-77
2022/01/14 07:22:19;;;;;;;26.67;13.30;;;;;;;-3.04;100.00;100700.19;5043620;28;20033;-71
2022/01/14 07:24:45;;;;;;;26.77;12.40;;;;;;;-3.02;100.00;100705.44;5048929;28;20033;-71
2022/01/14 07:27:11;;;;;;;38.97;13.45;;;;;;;-3.09;100.00;100699.56;5051240;28;20017;-76
2022/01/14 07:29:39;;;;;;;35.10;12.57;;;;;;;-3.01;100.00;100713.31;5055855;28;20788;-80
2022/01/14 07:32:07;;;;;;;37.78;10.98;;;;;;;-2.97;100.00;100720.16;5044085;28;20026;-80
2022/01/14 07:34:33;;;;;;;42.30;14.38;;;;;;;-3.01;100.00;100728.31;5047258;28;20029;-79
2022/01/14 07:36:59;;;;;;;42.53;15.05;;;;;;;-2.96;100.00;100694.53;5032500;28;20028;-80
2022/01/14 07:39:24;;;;;;;36.90;14.40;;;;;;;-3.00;100.00;100687.69;5017482;28;20034;-78
2022/01/14 07:41:50;;;;;;;44.42;13.88;;;;;;;-3.09;100.00;100667.81;5024225;28;20022;-79
2022/01/14 07:44:16;;;;;;;32.72;13.02;;;;;;;-2.82;100.00;100694.78;5023742;28;20044;-79
2022/01/14 07:46:42;;;;;;;35.03;12.88;;;;;;;-2.76;100.00;100690.97;5025129;28;20494;-81
2022/01/14 07:49:10;;;;;;;34.42;13.27;;;;;;;-2.72;100.00;100703.16;5036051;28;20056;-79
2022/01/14 07:51:36;;;;;;;42.25;15.85;;;;;;;-2.70;100.00;100694.22;5027958;28;20025;-71
2022/01/14 07:54:06;;;;;;;42.08;16.98;;;;;;;-2.35;100.00;100704.91;5027855;28;20391;-73
2022/01/14 07:56:33;;;;;;;49.72;17.15;;;;;;;-2.05;100.00;100691.06;5022343;28;20032;-73
2022/01/14 07:58:58;;;;;;;51.72;17.42;;;;;;;-1.36;100.00;100667.16;5023287;28;20041;-76
2022/01/14 08:01:24;;;;;;;52.83;17.25;;;;;;;-0.63;100.00;100684.47;5022550;28;20399;-72
2022/01/14 08:03:49;;;;;;;44.25;16.70;;;;;;;-0.12;98.98;100675.34;5023623;28;20403;-76
2022/01/14 08:06:14;;;;;;;119.85;41.40;;;;;;;0.29;93.25;100689.78;5026214;28;20107;-77
2022/01/14 08:08:40;;;;;;;61.92;21.95;;;;;;;0.39;89.47;100675.00;5032961;28;20033;-77
2022/01/14 08:11:06;;;;;;;52.78;17.77;;;;;;;0.72;88.43;100668.56;5032734;28;20025;-75
2022/01/14 08:13:31;;;;;;;35.08;15.07;;;;;;;0.43;84.03;100682.72;5034489;28;20025;-73
2022/01/14 08:15:56;;;;;;;32.20;13.95;;;;;;;0.29;84.32;100696.00;5067340;28;20036;-71
2022/01/14 08:18:22;;;;;;;29.08;12.07;;;;;;;0.48;85.17;100706.41;5036474;28;20029;-74
2022/01/14 08:20:47;;;;;;;25.38;11.70;;;;;;;0.58;83.80;100696.91;5035103;28;20499;-73
2022/01/14 08:23:13;;;;;;;29.92;12.48;;;;;;;0.75;83.53;100700.34;5027379;28;20043;-75
2022/01/14 08:25:39;;;;;;;30.10;12.27;;;;;;;1.67;83.81;100703.38;5036071;28;20029;-75
2022/01/14 08:28:05;;;;;;;29.67;11.57;;;;;;;2.40;75.42;100678.94;5036079;28;20029;-75
2022/01/14 08:30:30;;;;;;;26.42;12.10;;;;;;;3.84;69.31;100691.03;5035989;28;20091;-75
2022/01/14 08:32:56;;;;;;;18.85;10.68;;;;;;;5.90;67.33;100676.63;5035839;28;20439;-75
2022/01/14 08:35:21;;;;;;;18.17;9.95;;;;;;;6.89;58.99;100676.34;5035094;28;20021;-74
2022/01/14 08:37:46;;;;;;;19.83;10.35;;;;;;;7.47;56.35;100664.00;5035691;28;20100;-73
2022/01/14 08:40:12;;;;;;;23.33;11.55;;;;;;;7.32;53.79;100684.22;5033280;28;20052;-73
2022/01/14 08:42:37;;;;;;;25.45;11.45;;;;;;;8.34;52.09;100681.25;5014215;28;20490;-73
2022/01/14 08:45:06;;;;;;;29.55;11.35;;;;;;;8.69;51.23;100687.91;5031995;28;20034;-72
2022/01/14 08:47:31;;;;;;;19.85;11.48;;;;;;;9.40;48.54;100684.69;5020914;28;20076;-73
2022/01/14 08:49:57;;;;;;;26.17;11.82;;;;;;;9.12;51.88;100678.44;5023725;28;20030;-74
2022/01/14 08:52:22;;;;;;;21.85;11.82;;;;;;;9.09;51.63;100679.59;5034307;28;20033;-73
2022/01/14 08:54:47;;;;;;;25.58;11.77;;;;;;;10.36;48.25;100676.13;5034101;28;20045;-74
2022/01/14 08:57:14;;;;;;;21.20;11.88;;;;;;;10.46;45.03;100680.44;5027267;28;20482;-74
2022/01/14 08:59:40;;;;;;;28.05;12.65;;;;;;;10.38;44.77;100674.97;5032552;28;20534;-74
2022/01/14 09:02:06;;;;;;;23.60;12.77;;;;;;;9.81;46.68;100671.66;5034545;28;20030;-73
2022/01/14 09:04:32;;;;;;;19.83;12.30;;;;;;;11.02;46.48;100680.16;5040040;28;20490;-75
2022/01/14 09:06:57;;;;;;;27.75;16.58;;;;;;;11.91;43.76;100678.88;5025590;28;20033;-73
2022/01/14 09:09:23;;;;;;;29.00;15.98;;;;;;;12.23;43.56;100676.19;5056459;28;20026;-72
2022/01/14 09:11:49;;;;;;;20.73;13.00;;;;;;;12.62;41.17;100667.38;5035064;28;20033;-73
2022/01/14 09:14:14;;;;;;;20.10;12.90;;;;;;;11.53;41.97;100671.09;5031123;28;20087;-72
2022/01/14 09:16:39;;;;;;;20.05;12.05;;;;;;;11.88;42.28;100650.22;5029876;28;20037;-75
2022/01/14 09:19:05;;;;;;;25.48;14.93;;;;;;;10.47;44.19;100665.03;5033589;28;20057;-76
2022/01/14 09:21:30;;;;;;;31.75;15.95;;;;;;;9.85;46.74;100652.28;5033899;28;20022;-76
2022/01/14 09:24:04;;;;;;;26.83;15.43;;;;;;;10.28;44.50;100657.97;5038656;28;20129;-76
2022/01/14 09:26:34;;;;;;;24.33;14.75;;;;;;;10.90;44.17;100655.22;5025656;28;20030;-77
2022/01/14 09:29:01;;;;;;;22.52;13.98;;;;;;;11.19;43.54;100655.72;5027021;28;20156;-79
2022/01/14 09:31:26;;;;;;;20.88;13.57;;;;;;;11.58;42.01;100674.16;5033627;28;20051;-73
2022/01/14 09:33:52;;;;;;;22.60;12.88;;;;;;;11.41;43.46;100656.13;5027179;28;20393;-75
2022/01/14 09:36:17;;;;;;;19.52;12.40;;;;;;;11.67;42.61;100652.50;5032862;28;20034;-74
2022/01/14 09:38:42;;;;;;;18.20;12.50;;;;;;;12.10;42.38;100658.72;5030460;28;20030;-73
2022/01/14 09:41:09;;;;;;;18.75;12.98;;;;;;;12.13;41.96;100671.94;5026881;28;20109;-74
2022/01/14 09:43:38;;;;;;;19.17;12.88;;;;;;;12.83;41.59;100677.69;5032844;28;20025;-75
2022/01/14 09:46:05;;;;;;;20.13;13.02;;;;;;;13.02;39.98;100673.78;5034374;28;20492;-74
2022/01/14 09:48:32;;;;;;;20.20;12.25;;;;;;;14.06;39.26;100654.63;5026329;28;20061;-72
2022/01/14 09:50:58;;;;;;;17.88;12.90;;;;;;;13.96;38.55;100660.31;5030535;28;20025;-73
2022/01/14 09:53:25;;;;;;;20.92;12.48;;;;;;;15.30;36.64;100662.38;5024161;28;20096;-71
2022/01/14 09:55:54;;;;;;;20.90;12.93;;;;;;;14.59;37.07;100656.47;5040314;28;20025;-77
2022/01/14 09:58:23;;;;;;;19.33;13.18;;;;;;;13.72;38.10;100669.47;5040899;28;20022;-76
2022/01/14 10:00:48;;;;;;;18.35;12.75;;;;;;;12.40;40.87;100678.94;5031825;28;20079;-73
2022/01/14 10:03:23;;;;;;;18.00;12.75;;;;;;;12.99;40.23;100673.25;5024191;28;20435;-74
2022/01/14 10:05:51;;;;;;;19.58;12.63;;;;;;;13.49;40.29;100674.84;5036303;28;20041;-74
2022/01/14 10:08:25;;;;;;;18.48;11.82;;;;;;;13.44;39.62;100671.78;5035653;28;20616;-75
2022/01/14 10:10:59;;;;;;;17.58;12.30;;;;;;;13.97;39.77;100667.47;5038383;28;20430;-77
2022/01/14 10:13:28;;;;;;;17.75;12.57;;;;;;;14.92;36.39;100649.84;5034570;28;20025;-77
2022/01/14 10:16:01;;;;;;;19.98;13.15;;;;;;;14.15;39.16;100659.00;5031477;28;20112;-74
2022/01/14 10:18:27;;;;;;;19.30;12.55;;;;;;;14.28;38.37;100664.69;5020073;28;20040;-75
2022/01/14 10:21:01;;;;;;;16.20;11.25;;;;;;;14.97;37.82;100637.34;5017000;28;20499;-73
2022/01/14 10:23:45;;;;;;;15.32;11.40;;;;;;;13.96;38.23;100658.47;5020377;28;20021;-75
2022/01/14 10:26:12;;;;;;;15.13;11.23;;;;;;;15.22;36.99;100651.56;5027468;28;20029;-76
2022/01/14 10:28:38;;;;;;;16.75;11.75;;;;;;;14.25;38.15;100655.00;5035396;28;20171;-75
2022/01/14 10:31:05;;;;;;;20.25;12.15;;;;;;;14.03;38.40;100634.91;5023459;28;20069;-76
2022/01/14 10:33:32;;;;;;;16.27;11.43;;;;;;;13.97;39.56;100651.13;5031912;28;20027;-81
2022/01/14 10:35:57;;;;;;;15.45;10.68;;;;;;;14.72;37.58;100641.34;5043033;28;20033;-78
2022/01/14 10:38:25;;;;;;;14.65;10.82;;;;;;;14.53;36.14;100646.28;5043951;28;20033;-76
2022/01/14 10:40:56;;;;;;;18.30;10.55;;;;;;;14.80;36.53;100644.88;5027957;28;20063;-74
2022/01/14 10:43:31;;;;;;;15.63;10.85;;;;;;;14.37;37.87;100647.25;5158748;22;20045;-74
2022/01/14 10:45:57;;;;;;;14.73;10.93;;;;;;;15.05;35.63;100620.06;5064213;28;20063;-76
2022/01/14 10:48:32;;;;;;;16.45;10.82;;;;;;;14.76;35.90;100635.34;5068817;28;20052;-74
2022/01/14 10:51:00;;;;;;;15.63;11.00;;;;;;;14.40;36.53;100637.88;5051316;28;20393;-74
2022/01/14 10:53:30;;;;;;;17.15;11.10;;;;;;;14.09;37.84;100630.63;5049861;28;20112;-74
2022/01/14 10:56:01;;;;;;;15.88;11.18;;;;;;;12.80;38.68;100637.31;5048117;28;20017;-75
2022/01/14 10:58:29;;;;;;;16.52;10.48;;;;;;;13.33;39.42;100633.09;5046730;28;20052;-69
2022/01/14 11:01:22;;;;;;;15.68;10.80;;;;;;;14.02;38.13;100616.06;5029147;28;20021;-69
2022/01/14 11:03:48;;;;;;;17.85;10.88;;;;;;;15.41;35.22;100622.03;5040325;28;20444;-70
2022/01/14 11:06:38;;;;;;;17.30;10.70;;;;;;;15.39;35.59;100608.56;5043974;28;20055;-69
2022/01/14 11:09:05;;;;;;;15.77;11.32;;;;;;;16.32;34.37;100620.53;5036234;28;20032;-73
2022/01/14 11:11:33;;;;;;;17.92;11.85;;;;;;;15.83;34.91;100604.91;5040383;28;20021;-76
2022/01/14 11:13:59;;;;;;;16.13;11.40;;;;;;;14.34;36.52;100590.44;5049625;28;20073;-73
2022/01/14 11:16:25;;;;;;;17.30;11.52;;;;;;;14.54;36.81;100612.59;5049918;28;20021;-76
2022/01/14 11:18:51;;;;;;;15.75;11.23;;;;;;;13.07;38.41;100578.13;5048645;28;20471;-74
2022/01/14 11:24:03;;;;;;;17.17;11.05;;;;;;;15.00;36.42;100568.81;5049314;28;20202;-74
2022/01/14 11:26:33;;;;;;;16.35;11.27;;;;;;;14.08;37.67;100565.50;5048569;28;20025;-72
2022/01/14 11:29:09;;;;;;;18.38;11.25;;;;;;;13.97;38.06;100581.22;5048592;28;20025;-75
2022/01/14 11:31:37;;;;;;;19.40;12.00;;;;;;;13.32;39.23;100563.44;5051705;28;20082;-73
2022/01/14 11:34:07;;;;;;;18.30;11.70;;;;;;;14.08;38.47;100574.50;5067722;28;20137;-73
2022/01/14 11:36:59;;;;;;;16.73;11.52;;;;;;;14.41;37.58;100560.59;5038003;28;20112;-80